Main page
METAR-TAF:

METAR-TAF

Airports :

Kristianstad Airport

Kristianstad, Sweden

latitude: 55-55N, longitude: 014-05E, elevation: 23 m

Current weather observation

The report was made 37 minutes ago, at 02:50 UTC
Wind 2 kt from the West
Temperature 11°C
Humidity 100%
Pressure 1018 hPa
Visibility 10 km or more

METAR: ESMK 240250Z AUTO 27002KT 9999 R01///// R19/P2000N NCD 11/11 Q1018

Time: 05:27 (03:27 UTC)

Forecast

The report was made 13 hours and 16 minutes ago, at 14:11 UTC
Forecast valid from 23 at 15 UTC to 23 at 19 UTC
Wind 10 kt from the West/Northwest
Visibility 10 km or more
Scattered clouds at a height of 2500 ft
Broken clouds at a height of 3500 ft

TAF: ESMK 231411Z 2315/2319 29010KT 9999 SCT025 BKN035

Weather observations and forecasts of more than 4000 airports (METAR and TAF reports).

The available stations are represented by yellow and red dots on the map.

Hover mouse over dot to see the name of the station.

Then click to see weather observations and forecasts.

To change the map : click on the green buttons with a black cross to zoom in, on the green button with a dash to zoom out, or on the green arrows for adjacent maps.


METAR-TAF: